Time,TemperatureF,DewpointF,PressureIn,WindDirection,WindDirectionDegrees,WindSpeedMPH,WindSpeedGustMPH,Humidity,HourlyPrecipIn,Conditions,Clouds,dailyrainin,SoftwareType,DateUTC
2013-06-04 00:09:00,50.8,45.0,30.08,NW,309,0.0,0.0,81,0.00,,,0.00,weatherlink.com 1.10,2013-06-04 04:09:00,
2013-06-04 00:24:00,50.3,46.0,30.09,NW,309,0.0,0.0,84,0.00,,,0.00,weatherlink.com 1.10,2013-06-04 04:24:00,
2013-06-04 00:39:00,50.0,46.0,30.09,NW,309,0.0,0.0,87,0.00,,,0.00,weatherlink.com 1.10,2013-06-04 04:39:00,
2013-06-04 00:54:00,49.5,46.0,30.10,NW,309,0.0,0.0,88,0.00,,,0.00,weatherlink.com 1.10,2013-06-04 04:54:00,
2013-06-04 01:09:00,49.1,46.0,30.10,NW,309,0.0,0.0,89,0.00,,,0.00,weatherlink.com 1.10,2013-06-04 05:09:00,
2013-06-04 01:24:00,48.7,46.0,30.10,NW,309,0.0,0.0,90,0.00,,,0.00,weatherlink.com 1.10,2013-06-04 05:24:00,
2013-06-04 01:39:00,48.5,46.0,30.10,NW,309,0.0,0.0,91,0.00,,,0.00,weatherlink.com 1.10,2013-06-04 05:39:00,
2013-06-04 01:54:00,48.1,46.0,30.11,NW,309,0.0,0.0,91,0.00,,,0.00,weatherlink.com 1.10,2013-06-04 05:54:00,
2013-06-04 02:09:00,47.9,46.0,30.12,NW,309,0.0,0.0,92,0.00,,,0.00,weatherlink.com 1.10,2013-06-04 06:09:00,
2013-06-04 02:25:00,47.6,46.0,30.11,NW,309,0.0,0.0,93,0.00,,,0.00,weatherlink.com 1.10,2013-06-04 06:25:00,
2013-06-04 02:40:00,47.3,45.0,30.12,NW,309,0.0,0.0,93,0.00,,,0.00,weatherlink.com 1.10,2013-06-04 06:40:00,
2013-06-04 02:55:00,47.1,45.0,30.12,NW,309,0.0,0.0,93,0.00,,,0.00,weatherlink.com 1.10,2013-06-04 06:55:00,
2013-06-04 03:10:00,47.1,46.0,30.11,NW,309,0.0,0.0,94,0.00,,,0.00,weatherlink.com 1.10,2013-06-04 07:10:00,
2013-06-04 03:25:00,46.8,45.0,30.11,NW,309,0.0,0.0,94,0.00,,,0.00,weatherlink.com 1.10,2013-06-04 07:25:00,
2013-06-04 03:40:00,46.4,45.0,30.11,NW,309,0.0,0.0,94,0.00,,,0.00,weatherlink.com 1.10,2013-06-04 07:40:00,
2013-06-04 03:55:00,46.2,45.0,30.11,NW,309,0.0,0.0,94,0.00,,,0.00,weatherlink.com 1.10,2013-06-04 07:55:00,
2013-06-04 04:10:00,46.1,45.0,30.11,NW,309,0.0,0.0,94,0.00,,,0.00,weatherlink.com 1.10,2013-06-04 08:10:00,
2013-06-04 04:25:00,46.0,44.0,30.12,NW,309,0.0,0.0,94,0.00,,,0.00,weatherlink.com 1.10,2013-06-04 08:25:00,
2013-06-04 04:40:00,45.9,45.0,30.12,NW,309,0.0,0.0,95,0.00,,,0.00,weatherlink.com 1.10,2013-06-04 08:40:00,
2013-06-04 04:55:00,45.6,44.0,30.12,NW,309,0.0,0.0,94,0.00,,,0.00,weatherlink.com 1.10,2013-06-04 08:55:00,
2013-06-04 05:10:00,45.3,44.0,30.12,NW,309,0.0,0.0,95,0.00,,,0.00,weatherlink.com 1.10,2013-06-04 09:10:00,
2013-06-04 05:25:00,45.2,44.0,30.13,NW,309,0.0,0.0,95,0.00,,,0.00,weatherlink.com 1.10,2013-06-04 09:25:00,
2013-06-04 05:40:00,44.9,44.0,30.13,NW,309,0.0,0.0,95,0.00,,,0.00,weatherlink.com 1.10,2013-06-04 09:40:00,
2013-06-04 05:55:00,44.6,43.0,30.13,NW,309,0.0,0.0,95,0.00,,,0.00,weatherlink.com 1.10,2013-06-04 09:55:00,
2013-06-04 06:10:00,44.7,43.0,30.13,NW,309,0.0,0.0,95,0.00,,,0.00,weatherlink.com 1.10,2013-06-04 10:10:00,
2013-06-04 06:25:00,44.7,43.0,30.14,NW,309,0.0,0.0,95,0.00,,,0.00,weatherlink.com 1.10,2013-06-04 10:25:00,
2013-06-04 06:40:00,45.1,44.0,30.15,NW,309,0.0,0.0,95,0.00,,,0.00,weatherlink.com 1.10,2013-06-04 10:40:00,
2013-06-04 06:55:00,45.3,44.0,30.15,NW,309,0.0,0.0,95,0.00,,,0.00,weatherlink.com 1.10,2013-06-04 10:55:00,
2013-06-04 07:10:00,45.4,44.0,30.16,NW,309,0.0,0.0,95,0.00,,,0.00,weatherlink.com 1.10,2013-06-04 11:10:00,
2013-06-04 07:25:00,45.7,44.0,30.16,NW,309,0.0,0.0,95,0.00,,,0.00,weatherlink.com 1.10,2013-06-04 11:25:00,
2013-06-04 07:40:00,46.2,45.0,30.16,NW,309,0.0,0.0,95,0.00,,,0.00,weatherlink.com 1.10,2013-06-04 11:40:00,
2013-06-04 07:55:00,47.1,46.0,30.16,South,180,0.0,0.0,96,0.00,,,0.00,weatherlink.com 1.10,2013-06-04 11:55:00,
2013-06-04 08:10:00,48.2,47.0,30.17,South,181,0.0,0.0,95,0.00,,,0.00,weatherlink.com 1.10,2013-06-04 12:10:00,
2013-06-04 08:25:00,49.2,47.0,30.17,SSE,165,0.0,0.0,92,0.00,,,0.00,weatherlink.com 1.10,2013-06-04 12:25:00,
2013-06-04 08:40:00,50.8,48.0,30.17,SSE,165,0.0,0.0,89,0.00,,,0.00,weatherlink.com 1.10,2013-06-04 12:40:00,
2013-06-04 08:55:00,52.3,48.0,30.18,ESE,112,0.0,0.0,85,0.00,,,0.00,weatherlink.com 1.10,2013-06-04 12:55:00,
2013-06-04 09:10:00,55.1,46.0,30.17,NNE,32,0.0,1.0,71,0.00,,,0.00,weatherlink.com 1.10,2013-06-04 13:10:00,
2013-06-04 09:25:00,58.8,46.0,30.16,South,189,0.0,0.0,63,0.00,,,0.00,weatherlink.com 1.10,2013-06-04 13:25:00,
2013-06-04 09:40:00,61.0,47.0,30.17,SE,124,1.0,2.0,61,0.00,,,0.00,weatherlink.com 1.10,2013-06-04 13:40:00,
2013-06-04 09:56:00,62.5,46.0,30.17,South,176,0.0,3.0,55,0.00,,,0.00,weatherlink.com 1.10,2013-06-04 13:56:00,
2013-06-04 10:11:00,63.7,46.0,30.17,South,181,0.0,2.0,53,0.00,,,0.00,weatherlink.com 1.10,2013-06-04 14:11:00,
2013-06-04 10:26:00,65.0,46.0,30.17,South,179,0.0,1.0,50,0.00,,,0.00,weatherlink.com 1.10,2013-06-04 14:26:00,
2013-06-04 10:41:00,65.8,48.0,30.17,WNW,296,1.0,1.0,53,0.00,,,0.00,weatherlink.com 1.10,2013-06-04 14:41:00,
2013-06-04 10:56:00,67.2,46.0,30.17,SW,233,0.0,0.0,47,0.00,,,0.00,weatherlink.com 1.10,2013-06-04 14:56:00,
2013-06-04 11:26:00,68.9,48.0,30.16,SE,135,0.0,2.0,47,0.00,,,0.00,weatherlink.com 1.10,2013-06-04 15:26:00,
2013-06-04 11:56:00,69.5,48.0,30.16,NW,309,1.0,3.0,47,0.00,,,0.00,weatherlink.com 1.10,2013-06-04 15:56:00,
2013-06-04 12:11:00,67.9,48.0,30.16,SSE,165,2.0,3.0,50,0.00,,,0.00,weatherlink.com 1.10,2013-06-04 16:11:00,
2013-06-04 12:26:00,70.1,47.0,30.15,SSE,151,0.0,2.0,44,0.00,,,0.00,weatherlink.com 1.10,2013-06-04 16:26:00,
2013-06-04 12:41:00,72.2,52.0,30.16,South,181,0.0,1.0,49,0.00,,,0.00,weatherlink.com 1.10,2013-06-04 16:41:00,
2013-06-04 12:56:00,71.1,49.0,30.15,NNW,336,0.0,0.0,46,0.00,,,0.00,weatherlink.com 1.10,2013-06-04 16:56:00,
2013-06-04 13:11:00,69.8,49.0,30.15,NW,318,0.0,3.0,48,0.00,,,0.00,weatherlink.com 1.10,2013-06-04 17:11:00,
2013-06-04 13:26:00,70.0,48.0,30.16,SE,128,1.0,3.0,45,0.00,,,0.00,weatherlink.com 1.10,2013-06-04 17:26:00,
2013-06-04 13:41:00,70.1,49.0,30.16,NW,309,0.0,3.0,47,0.00,,,0.00,weatherlink.com 1.10,2013-06-04 17:41:00,
2013-06-04 13:56:00,69.7,50.0,30.15,WNW,295,1.0,2.0,49,0.00,,,0.00,weatherlink.com 1.10,2013-06-04 17:56:00,
2013-06-04 14:11:00,69.8,49.0,30.15,NW,304,0.0,0.0,48,0.00,,,0.00,weatherlink.com 1.10,2013-06-04 18:11:00,
2013-06-04 14:26:00,69.2,49.0,30.14,SE,127,0.0,3.0,48,0.00,,,0.00,weatherlink.com 1.10,2013-06-04 18:26:00,
2013-06-04 14:41:00,68.8,50.0,30.13,WNW,293,0.0,0.0,51,0.00,,,0.00,weatherlink.com 1.10,2013-06-04 18:41:00,
2013-06-04 14:56:00,69.3,50.0,30.12,North,4,0.0,2.0,50,0.00,,,0.00,weatherlink.com 1.10,2013-06-04 18:56:00,
2013-06-04 15:11:00,70.1,49.0,30.11,NNW,329,0.0,4.0,47,0.00,,,0.00,weatherlink.com 1.10,2013-06-04 19:11:00,
2013-06-04 15:26:00,70.0,49.0,30.10,WNW,302,0.0,3.0,48,0.00,,,0.00,weatherlink.com 1.10,2013-06-04 19:26:00,
2013-06-04 15:41:00,69.2,50.0,30.10,ESE,117,2.0,2.0,51,0.00,,,0.00,weatherlink.com 1.10,2013-06-04 19:41:00,
2013-06-04 15:56:00,69.2,49.0,30.11,SE,136,0.0,1.0,48,0.00,,,0.00,weatherlink.com 1.10,2013-06-04 19:56:00,
2013-06-04 16:12:00,70.4,50.0,30.11,SE,132,0.0,0.0,49,0.00,,,0.00,weatherlink.com 1.10,2013-06-04 20:12:00,
2013-06-04 16:26:00,70.2,51.0,30.11,SE,142,0.0,2.0,51,0.00,,,0.00,weatherlink.com 1.10,2013-06-04 20:26:00,
2013-06-04 16:41:00,70.3,49.0,30.11,SSE,163,0.0,2.0,47,0.00,,,0.00,weatherlink.com 1.10,2013-06-04 20:41:00,
2013-06-04 16:56:00,69.6,51.0,30.11,SSE,148,0.0,0.0,51,0.00,,,0.00,weatherlink.com 1.10,2013-06-04 20:56:00,
2013-06-04 17:11:00,69.4,50.0,30.10,SE,141,1.0,2.0,50,0.00,,,0.00,weatherlink.com 1.10,2013-06-04 21:11:00,
2013-06-04 17:41:00,69.0,49.0,30.10,ESE,113,0.0,2.0,49,0.00,,,0.00,weatherlink.com 1.10,2013-06-04 21:41:00,
2013-06-04 17:56:00,69.3,49.0,30.10,SE,142,0.0,2.0,49,0.00,,,0.00,weatherlink.com 1.10,2013-06-04 21:56:00,
2013-06-04 18:11:00,69.7,48.0,30.10,NW,310,0.0,1.0,47,0.00,,,0.00,weatherlink.com 1.10,2013-06-04 22:11:00,
2013-06-04 18:27:00,69.8,49.0,30.10,SE,127,0.0,0.0,48,0.00,,,0.00,weatherlink.com 1.10,2013-06-04 22:27:00,
2013-06-04 18:42:00,69.4,50.0,30.09,SW,222,0.0,0.0,50,0.00,,,0.00,weatherlink.com 1.10,2013-06-04 22:42:00,
2013-06-04 18:57:00,69.2,51.0,30.10,SW,222,0.0,0.0,53,0.00,,,0.00,weatherlink.com 1.10,2013-06-04 22:57:00,
2013-06-04 19:12:00,69.3,50.0,30.09,SSW,198,0.0,1.0,51,0.00,,,0.00,weatherlink.com 1.10,2013-06-04 23:12:00,
2013-06-04 19:27:00,69.0,52.0,30.09,SSW,198,0.0,0.0,55,0.00,,,0.00,weatherlink.com 1.10,2013-06-04 23:27:00,
2013-06-04 19:42:00,68.5,51.0,30.10,South,169,0.0,1.0,54,0.00,,,0.00,weatherlink.com 1.10,2013-06-04 23:42:00,
2013-06-04 19:57:00,68.4,51.0,30.09,WSW,244,0.0,1.0,55,0.00,,,0.00,weatherlink.com 1.10,2013-06-04 23:57:00,
2013-06-04 20:12:00,68.1,51.0,30.10,WSW,246,0.0,0.0,55,0.00,,,0.00,weatherlink.com 1.10,2013-06-05 00:12:00,
2013-06-04 20:27:00,67.5,52.0,30.10,WSW,246,0.0,0.0,57,0.00,,,0.00,weatherlink.com 1.10,2013-06-05 00:27:00,
2013-06-04 20:42:00,66.8,52.0,30.10,WSW,246,0.0,0.0,59,0.00,,,0.00,weatherlink.com 1.10,2013-06-05 00:42:00,
2013-06-04 20:57:00,66.0,52.0,30.10,WSW,246,0.0,0.0,61,0.00,,,0.00,weatherlink.com 1.10,2013-06-05 00:57:00,
2013-06-04 21:12:00,65.1,52.0,30.10,WSW,246,0.0,0.0,62,0.00,,,0.00,weatherlink.com 1.10,2013-06-05 01:12:00,
2013-06-04 21:27:00,64.4,51.0,30.09,WSW,246,0.0,0.0,62,0.00,,,0.00,weatherlink.com 1.10,2013-06-05 01:27:00,
2013-06-04 21:42:00,63.8,51.0,30.10,WSW,246,0.0,0.0,63,0.00,,,0.00,weatherlink.com 1.10,2013-06-05 01:42:00,
2013-06-04 21:57:00,63.4,50.0,30.09,SW,222,0.0,0.0,62,0.00,,,0.00,weatherlink.com 1.10,2013-06-05 01:57:00,
2013-06-04 22:12:00,63.1,49.0,30.11,SW,222,0.0,0.0,61,0.00,,,0.00,weatherlink.com 1.10,2013-06-05 02:12:00,
2013-06-04 22:27:00,62.8,49.0,30.10,SW,222,0.0,0.0,61,0.00,,,0.00,weatherlink.com 1.10,2013-06-05 02:27:00,
2013-06-04 22:42:00,62.6,49.0,30.11,SSW,205,0.0,0.0,62,0.00,,,0.00,weatherlink.com 1.10,2013-06-05 02:42:00,
2013-06-04 22:57:00,62.1,49.0,30.11,SSW,207,0.0,0.0,62,0.00,,,0.00,weatherlink.com 1.10,2013-06-05 02:57:00,
2013-06-04 23:12:00,61.9,49.0,30.11,SSW,207,0.0,0.0,62,0.00,,,0.00,weatherlink.com 1.10,2013-06-05 03:12:00,
2013-06-04 23:27:00,61.7,48.0,30.11,SSW,207,0.0,0.0,62,0.00,,,0.00,weatherlink.com 1.10,2013-06-05 03:27:00,
2013-06-04 23:42:00,61.4,49.0,30.11,SSW,207,0.0,0.0,63,0.00,,,0.00,weatherlink.com 1.10,2013-06-05 03:42:00,
2013-06-04 23:57:00,61.1,48.0,30.10,SSW,207,0.0,0.0,63,0.00,,,0.00,weatherlink.com 1.10,2013-06-05 03:57:00,